createdAt,value
2023-03-11T00:00:22.364Z,10.09
2023-03-11T00:02:51.886Z,10.04
2023-03-11T00:05:29.397Z,10.05
2023-03-11T00:07:57.019Z,10.03
2023-03-11T00:10:29.877Z,10.11
2023-03-11T00:12:58.520Z,10.03
2023-03-11T00:15:26.779Z,9.93
2023-03-11T00:17:54.474Z,9.91
2023-03-11T00:20:25.288Z,9.92
2023-03-11T00:22:53.136Z,9.96
2023-03-11T00:25:21.656Z,9.93
2023-03-11T00:27:49.032Z,9.93
2023-03-11T00:30:17.245Z,9.87
2023-03-11T00:32:44.666Z,9.93
2023-03-11T00:35:17.843Z,9.87
2023-03-11T00:37:45.652Z,9.86
2023-03-11T00:40:15.058Z,9.86
2023-03-11T00:42:42.419Z,9.82
2023-03-11T00:45:11.380Z,9.83
2023-03-11T00:47:39.463Z,9.87
2023-03-11T00:50:08.249Z,9.91
2023-03-11T00:52:35.515Z,9.88
2023-03-11T00:55:03.145Z,9.91
2023-03-11T00:57:30.852Z,9.89
2023-03-11T00:59:59.474Z,9.90
2023-03-11T01:02:26.935Z,9.86
2023-03-11T01:04:55.825Z,9.85
2023-03-11T01:07:23.310Z,9.86
2023-03-11T01:09:50.664Z,9.80
2023-03-11T01:12:18.100Z,9.81
2023-03-11T01:14:45.231Z,9.82
2023-03-11T01:17:12.626Z,9.75
2023-03-11T01:19:39.838Z,9.78
2023-03-11T01:22:06.963Z,9.74
2023-03-11T01:24:34.696Z,9.78
2023-03-11T01:27:02.567Z,9.73
2023-03-11T01:29:29.750Z,9.63
2023-03-11T01:31:57.213Z,9.64
2023-03-11T01:34:24.368Z,9.64
2023-03-11T01:36:51.553Z,9.62
2023-03-11T01:39:20.005Z,9.65
2023-03-11T01:41:47.176Z,9.61
2023-03-11T01:44:14.380Z,9.57
2023-03-11T01:46:54.465Z,9.56
2023-03-11T01:49:22.577Z,9.60
2023-03-11T01:51:52.476Z,9.56
2023-03-11T01:54:28.888Z,9.53
2023-03-11T01:56:56.867Z,9.50
2023-03-11T01:59:29.698Z,9.51
2023-03-11T02:02:20.271Z,9.49
2023-03-11T02:04:48.658Z,9.56
2023-03-11T02:07:16.202Z,9.51
2023-03-11T02:09:43.729Z,9.52
2023-03-11T02:12:12.305Z,9.47
2023-03-11T02:14:46.318Z,9.47
2023-03-11T02:17:14.104Z,9.45
2023-03-11T02:20:02.028Z,9.45
2023-03-11T02:22:33.454Z,9.49
2023-03-11T02:25:39.229Z,9.53
2023-03-11T02:28:09.349Z,9.52
2023-03-11T02:30:40.246Z,9.51
2023-03-11T02:33:08.253Z,9.48
2023-03-11T02:35:36.006Z,9.48
2023-03-11T02:38:04.069Z,9.52
2023-03-11T02:40:38.782Z,9.54
2023-03-11T02:43:09.108Z,9.51
2023-03-11T02:45:40.104Z,9.51
2023-03-11T02:48:10.475Z,9.47
2023-03-11T02:50:38.656Z,9.54
2023-03-11T02:53:07.040Z,9.56
2023-03-11T02:55:34.528Z,9.56
2023-03-11T02:58:02.132Z,9.59
2023-03-11T03:00:29.590Z,9.56
2023-03-11T03:02:57.784Z,9.62
2023-03-11T03:05:25.502Z,9.59
2023-03-11T03:07:52.955Z,9.64
2023-03-11T03:10:21.439Z,9.71
2023-03-11T03:12:49.163Z,9.71
2023-03-11T03:15:16.718Z,9.70
2023-03-11T03:17:44.670Z,9.68
2023-03-11T03:20:14.003Z,9.69
2023-03-11T03:22:42.030Z,9.68
2023-03-11T03:25:10.590Z,9.67
2023-03-11T03:27:38.356Z,9.65
2023-03-11T03:30:07.033Z,9.63
2023-03-11T03:32:35.268Z,9.61
2023-03-11T03:35:03.160Z,9.58
2023-03-11T03:37:33.521Z,9.61
2023-03-11T03:40:01.081Z,9.54
2023-03-11T03:42:29.575Z,9.49
2023-03-11T03:44:57.046Z,9.49
2023-03-11T03:47:24.539Z,9.39
2023-03-11T03:49:51.697Z,9.26
2023-03-11T03:52:19.113Z,9.22
2023-03-11T03:54:46.582Z,9.14
2023-03-11T03:57:13.734Z,9.13
2023-03-11T03:59:41.823Z,9.06
2023-03-11T04:02:09.354Z,9.04
2023-03-11T04:04:37.024Z,8.92
2023-03-11T04:07:05.756Z,8.92
2023-03-11T04:09:34.124Z,8.91
2023-03-11T04:12:01.992Z,8.85
2023-03-11T04:14:32.435Z,8.87
2023-03-11T04:17:00.346Z,8.81
2023-03-11T04:19:28.163Z,8.78
2023-03-11T04:21:55.611Z,8.66
2023-03-11T04:24:23.700Z,8.61
2023-03-11T04:26:51.526Z,8.59
2023-03-11T04:29:18.892Z,8.57
2023-03-11T04:31:47.287Z,8.46
2023-03-11T04:34:15.341Z,8.30
2023-03-11T04:36:42.534Z,8.30
2023-03-11T04:39:10.260Z,8.25
2023-03-11T04:41:38.250Z,8.15
2023-03-11T04:44:05.925Z,8.18
2023-03-11T04:46:33.243Z,8.12
2023-03-11T04:49:00.996Z,8.06
2023-03-11T04:51:28.380Z,8.00
2023-03-11T04:53:55.871Z,7.97
2023-03-11T04:56:23.962Z,7.99
2023-03-11T04:58:52.422Z,7.94
2023-03-11T05:01:20.229Z,7.87
2023-03-11T05:03:47.987Z,7.71
2023-03-11T05:06:15.139Z,7.66
2023-03-11T05:08:42.340Z,7.53
2023-03-11T05:11:09.962Z,7.44
2023-03-11T05:13:37.316Z,7.41
2023-03-11T05:16:04.943Z,7.30
2023-03-11T05:18:32.536Z,7.25
2023-03-11T05:21:00.192Z,7.00
2023-03-11T05:23:28.305Z,7.07
2023-03-11T05:25:55.781Z,7.00
2023-03-11T05:28:23.065Z,6.96
2023-03-11T05:30:50.714Z,6.87
2023-03-11T05:33:18.408Z,6.81
2023-03-11T05:35:46.132Z,6.80
2023-03-11T05:38:13.921Z,6.74
2023-03-11T05:40:41.420Z,6.76
2023-03-11T05:43:08.611Z,6.67
2023-03-11T05:45:36.392Z,6.64
2023-03-11T05:48:03.970Z,6.60
2023-03-11T05:50:31.910Z,6.58
2023-03-11T05:53:00.623Z,6.50
2023-03-11T05:55:29.596Z,6.54
2023-03-11T05:57:56.815Z,6.51
2023-03-11T06:00:24.120Z,6.48
2023-03-11T06:02:51.801Z,6.42
2023-03-11T06:05:19.203Z,6.40
2023-03-11T06:07:46.774Z,6.34
2023-03-11T06:10:14.501Z,6.35
2023-03-11T06:12:41.789Z,6.40
2023-03-11T06:15:09.603Z,6.47
2023-03-11T06:17:37.383Z,6.41
2023-03-11T06:20:06.121Z,6.31
2023-03-11T06:22:33.976Z,6.30
2023-03-11T06:25:01.691Z,6.36
2023-03-11T06:27:30.961Z,6.34
2023-03-11T06:29:58.776Z,6.22
2023-03-11T06:32:26.919Z,6.22
2023-03-11T06:34:54.140Z,6.17
2023-03-11T06:37:23.598Z,6.28
2023-03-11T06:39:54.182Z,6.39
2023-03-11T06:42:24.023Z,6.33
2023-03-11T06:44:52.043Z,6.29
2023-03-11T06:47:19.544Z,6.19
2023-03-11T06:49:48.189Z,6.13
2023-03-11T06:52:16.702Z,6.08
2023-03-11T06:54:44.611Z,6.10
2023-03-11T06:57:12.504Z,6.20
2023-03-11T06:59:40.363Z,6.17
2023-03-11T07:02:10.608Z,6.11
2023-03-11T07:04:37.838Z,6.02
2023-03-11T07:07:05.362Z,6.02
2023-03-11T07:09:32.492Z,6.08
2023-03-11T07:11:59.896Z,6.09
2023-03-11T07:14:27.773Z,6.10
2023-03-11T07:16:55.470Z,6.13
2023-03-11T07:19:23.496Z,6.05
2023-03-11T07:21:51.700Z,5.95
2023-03-11T07:24:18.833Z,6.03
2023-03-11T07:26:46.286Z,6.14
2023-03-11T07:29:13.708Z,6.08
2023-03-11T07:31:41.450Z,5.98
2023-03-11T07:34:11.579Z,5.88
2023-03-11T07:36:41.001Z,5.85
2023-03-11T07:39:08.351Z,5.87
2023-03-11T07:41:36.216Z,5.97
2023-03-11T07:44:04.659Z,6.02
2023-03-11T07:46:32.970Z,6.03
2023-03-11T07:49:01.828Z,6.06
2023-03-11T07:51:31.925Z,6.12
2023-03-11T07:54:00.798Z,6.18
2023-03-11T07:56:32.193Z,6.02
2023-03-11T07:59:00.953Z,6.04
2023-03-11T08:01:35.986Z,6.01
2023-03-11T08:04:08.873Z,6.05
2023-03-11T08:06:37.272Z,6.21
2023-03-11T08:09:07.569Z,6.17
2023-03-11T08:11:35.616Z,6.02
2023-03-11T08:14:03.204Z,6.08
2023-03-11T08:16:31.860Z,6.14
2023-03-11T08:18:59.302Z,6.21
2023-03-11T08:21:29.234Z,6.31
2023-03-11T08:23:58.811Z,6.41
2023-03-11T08:26:26.284Z,6.40
2023-03-11T08:28:54.928Z,6.44
2023-03-11T08:31:28.812Z,6.51
2023-03-11T08:34:01.426Z,6.57
2023-03-11T08:36:29.153Z,6.60
2023-03-11T08:38:56.272Z,6.61
2023-03-11T08:41:23.646Z,6.61
2023-03-11T08:43:52.338Z,6.46
2023-03-11T08:46:31.364Z,6.52
2023-03-11T08:49:01.335Z,6.64
2023-03-11T08:51:30.324Z,6.68
2023-03-11T08:53:57.880Z,6.71
2023-03-11T08:56:25.767Z,6.79
2023-03-11T08:58:52.935Z,6.96
2023-03-11T09:01:23.718Z,7.00
2023-03-11T09:03:51.544Z,6.94
2023-03-11T09:06:18.919Z,6.90
2023-03-11T09:08:46.804Z,6.99
2023-03-11T09:11:15.419Z,6.96
2023-03-11T09:13:43.143Z,6.97
2023-03-11T09:16:13.979Z,6.98
2023-03-11T09:18:41.553Z,6.95
2023-03-11T09:21:09.428Z,7.08
2023-03-11T09:23:36.581Z,7.35
2023-03-11T09:26:04.176Z,7.40
2023-03-11T09:28:31.340Z,7.35
2023-03-11T09:30:58.570Z,7.50
2023-03-11T09:33:26.191Z,7.55
2023-03-11T09:35:53.391Z,7.65
2023-03-11T09:38:20.578Z,7.60
2023-03-11T09:41:17.443Z,7.60
2023-03-11T09:43:54.184Z,7.62
2023-03-11T09:46:50.733Z,7.69
2023-03-11T09:49:42.009Z,7.75
2023-03-11T09:52:15.143Z,7.62
2023-03-11T09:54:52.552Z,7.64
2023-03-11T09:57:23.379Z,7.71
2023-03-11T09:59:50.697Z,7.68
2023-03-11T10:02:20.709Z,7.67
2023-03-11T10:05:04.421Z,7.64
2023-03-11T10:07:38.335Z,7.58
2023-03-11T10:10:05.913Z,7.39
2023-03-11T10:12:58.142Z,7.49
2023-03-11T10:15:48.438Z,7.67
2023-03-11T10:18:55.239Z,7.79
2023-03-11T10:21:28.765Z,7.92
2023-03-11T10:24:06.285Z,7.72
2023-03-11T10:26:44.779Z,7.58
2023-03-11T10:29:26.193Z,7.48
2023-03-11T10:32:18.130Z,7.82
2023-03-11T10:34:51.325Z,7.71
2023-03-11T10:37:24.103Z,7.58
2023-03-11T10:39:51.526Z,7.55
2023-03-11T10:42:25.565Z,7.54
2023-03-11T10:44:52.802Z,7.58
2023-03-11T10:47:23.200Z,7.59
2023-03-11T10:49:51.381Z,7.79
2023-03-11T10:52:19.540Z,7.93
2023-03-11T10:54:48.888Z,7.91
2023-03-11T10:57:23.080Z,7.89
2023-03-11T10:59:52.793Z,7.42
2023-03-11T11:02:31.719Z,7.24
2023-03-11T11:05:17.539Z,7.24
2023-03-11T11:07:47.242Z,7.11
2023-03-11T11:10:21.937Z,7.26
2023-03-11T11:12:55.961Z,7.13
2023-03-11T11:15:24.474Z,7.03
2023-03-11T11:17:55.465Z,7.17
2023-03-11T11:20:25.061Z,7.39
2023-03-11T11:22:54.966Z,7.42
2023-03-11T11:25:33.029Z,7.25
2023-03-11T11:28:17.825Z,7.21
2023-03-11T11:31:06.226Z,7.07
2023-03-11T11:33:49.602Z,7.13
2023-03-11T11:36:18.439Z,7.54
2023-03-11T11:38:45.960Z,7.63
2023-03-11T11:41:17.172Z,7.54
2023-03-11T11:43:47.172Z,7.55
2023-03-11T11:46:38.848Z,7.86
2023-03-11T11:49:12.759Z,8.08
2023-03-11T11:51:43.153Z,8.02
2023-03-11T11:54:21.123Z,7.89
2023-03-11T11:56:48.535Z,7.70
2023-03-11T11:59:23.065Z,7.60
2023-03-11T12:02:05.996Z,7.54
2023-03-11T12:05:00.992Z,7.59
2023-03-11T12:07:33.872Z,7.77
2023-03-11T12:10:22.261Z,7.98
2023-03-11T12:13:29.101Z,7.99
2023-03-11T12:16:03.609Z,7.76
2023-03-11T12:18:36.955Z,7.67
2023-03-11T12:21:38.796Z,7.53
2023-03-11T12:24:08.747Z,7.35
2023-03-11T12:26:38.453Z,7.43
2023-03-11T12:29:24.810Z,7.74
2023-03-11T12:31:54.072Z,7.81
2023-03-11T12:34:22.264Z,7.46
2023-03-11T12:36:49.951Z,7.26
2023-03-11T12:39:35.522Z,7.22
2023-03-11T12:42:38.531Z,7.45
2023-03-11T12:45:48.472Z,7.66
2023-03-11T12:48:27.872Z,7.69
2023-03-11T12:50:56.430Z,7.51
2023-03-11T12:53:41.644Z,7.46
2023-03-11T12:56:43.831Z,7.26
2023-03-11T12:59:36.170Z,7.36
2023-03-11T13:02:27.238Z,7.15
2023-03-11T13:05:23.956Z,7.14
2023-03-11T13:08:05.503Z,7.36
2023-03-11T13:10:51.633Z,7.33
2023-03-11T13:13:42.108Z,7.51
2023-03-11T13:16:15.300Z,7.51
2023-03-11T13:18:44.936Z,7.68
2023-03-11T13:21:27.954Z,7.70
2023-03-11T13:24:22.077Z,7.83
2023-03-11T13:26:56.192Z,7.61
2023-03-11T13:29:41.582Z,7.49
2023-03-11T13:32:25.305Z,7.42
2023-03-11T13:35:22.102Z,7.50
2023-03-11T13:38:05.614Z,7.61
2023-03-11T13:40:38.540Z,7.75
2023-03-11T13:43:11.331Z,7.78
2023-03-11T13:45:39.192Z,7.76
2023-03-11T13:48:14.948Z,7.52
2023-03-11T13:50:48.284Z,7.60
2023-03-11T13:53:26.008Z,7.79
2023-03-11T13:55:53.479Z,7.74
2023-03-11T13:58:23.559Z,7.68
2023-03-11T14:00:58.399Z,7.83
2023-03-11T14:03:28.764Z,7.86
2023-03-11T14:06:21.868Z,7.72
2023-03-11T14:08:54.428Z,7.66
2023-03-11T14:11:27.162Z,7.44
2023-03-11T14:13:55.381Z,7.66
2023-03-11T14:16:44.218Z,7.49
2023-03-11T14:19:16.677Z,7.47
2023-03-11T14:21:48.503Z,7.47
2023-03-11T14:24:36.327Z,7.52
2023-03-11T14:27:08.964Z,7.83
2023-03-11T14:29:38.622Z,7.84
2023-03-11T14:32:24.228Z,7.47
2023-03-11T14:34:51.780Z,7.32
2023-03-11T14:37:38.553Z,7.01
2023-03-11T14:40:38.412Z,6.94
2023-03-11T14:43:07.198Z,6.95
2023-03-11T14:45:39.442Z,6.84
2023-03-11T14:48:23.281Z,6.82
2023-03-11T14:50:50.937Z,6.71
2023-03-11T14:53:29.009Z,6.92
2023-03-11T14:56:14.858Z,6.84
2023-03-11T14:58:51.059Z,6.90
2023-03-11T15:01:26.731Z,6.80
2023-03-11T15:03:58.128Z,6.70
2023-03-11T15:06:28.650Z,6.62
2023-03-11T15:09:11.873Z,6.60
2023-03-11T15:11:52.240Z,6.64
2023-03-11T15:14:23.925Z,6.54
2023-03-11T15:16:53.089Z,6.45
2023-03-11T15:19:28.965Z,6.39
2023-03-11T15:21:59.680Z,6.36
2023-03-11T15:24:32.566Z,6.29
2023-03-11T15:27:02.905Z,6.30
2023-03-11T15:29:31.856Z,6.19
2023-03-11T15:31:59.703Z,6.05
2023-03-11T15:34:35.363Z,6.02
2023-03-11T15:37:16.181Z,5.97
2023-03-11T15:39:44.617Z,5.99
2023-03-11T15:42:15.563Z,6.09
2023-03-11T15:44:52.665Z,6.13
2023-03-11T15:47:22.184Z,6.06
2023-03-11T15:49:49.849Z,5.99
2023-03-11T15:52:19.385Z,5.99
2023-03-11T15:54:54.972Z,6.05
2023-03-11T15:57:26.554Z,5.98
2023-03-11T15:59:56.103Z,5.93
2023-03-11T16:02:25.635Z,5.83
2023-03-11T16:04:53.453Z,5.88
2023-03-11T16:07:36.493Z,5.86
2023-03-11T16:10:08.246Z,5.88
2023-03-11T16:12:35.595Z,5.79
2023-03-11T16:15:04.193Z,5.70
2023-03-11T16:17:46.848Z,5.62
2023-03-11T16:20:16.329Z,5.61
2023-03-11T16:22:44.202Z,5.53
2023-03-11T16:25:21.851Z,5.59
2023-03-11T16:27:53.966Z,5.58
2023-03-11T16:30:21.404Z,5.40
2023-03-11T16:32:49.069Z,5.40
2023-03-11T16:35:16.849Z,5.34
2023-03-11T16:37:44.281Z,5.21
2023-03-11T16:40:15.389Z,5.18
2023-03-11T16:42:43.697Z,5.12
2023-03-11T16:45:12.818Z,5.08
2023-03-11T16:47:40.507Z,5.10
2023-03-11T16:50:09.124Z,5.09
2023-03-11T16:52:36.341Z,5.05
2023-03-11T16:55:04.348Z,4.99
2023-03-11T16:57:31.480Z,4.99
2023-03-11T16:59:58.670Z,5.00
2023-03-11T17:02:26.231Z,5.02
2023-03-11T17:04:53.500Z,4.89
2023-03-11T17:07:24.105Z,4.90
2023-03-11T17:09:51.782Z,4.93
2023-03-11T17:12:19.273Z,4.93
2023-03-11T17:14:46.773Z,4.91
2023-03-11T17:17:14.279Z,4.82
2023-03-11T17:19:41.428Z,4.77
2023-03-11T17:22:08.783Z,4.80
2023-03-11T17:24:37.105Z,4.72
2023-03-11T17:27:05.215Z,4.72
2023-03-11T17:29:33.869Z,4.61
2023-03-11T17:32:02.455Z,4.52
2023-03-11T17:34:29.702Z,4.52
2023-03-11T17:36:57.702Z,4.54
2023-03-11T17:39:25.242Z,4.58
2023-03-11T17:41:55.313Z,4.54
2023-03-11T17:44:25.581Z,4.57
2023-03-11T17:46:52.735Z,4.59
2023-03-11T17:49:19.940Z,4.61
2023-03-11T17:51:47.450Z,4.60
2023-03-11T17:54:14.744Z,4.63
2023-03-11T17:56:41.892Z,4.65
2023-03-11T17:59:09.378Z,4.64
2023-03-11T18:01:36.756Z,4.64
2023-03-11T18:04:04.505Z,4.66
2023-03-11T18:06:31.646Z,4.66
2023-03-11T18:08:59.263Z,4.57
2023-03-11T18:11:28.177Z,4.56
2023-03-11T18:13:55.547Z,4.47
2023-03-11T18:16:25.003Z,4.47
2023-03-11T18:18:52.685Z,4.43
2023-03-11T18:21:24.520Z,4.26
2023-03-11T18:23:59.589Z,4.27
2023-03-11T18:26:28.914Z,4.29
2023-03-11T18:28:57.646Z,4.25
2023-03-11T18:31:25.754Z,4.21
2023-03-11T18:33:59.182Z,4.17
2023-03-11T18:36:31.211Z,4.12
2023-03-11T18:39:00.238Z,4.20
2023-03-11T18:41:28.182Z,4.19
2023-03-11T18:43:59.602Z,4.12
2023-03-11T18:46:31.503Z,4.03
2023-03-11T18:48:59.731Z,3.99
2023-03-11T18:51:29.232Z,4.03
2023-03-11T18:53:56.748Z,3.88
2023-03-11T18:56:23.862Z,3.85
2023-03-11T18:58:51.294Z,3.81
2023-03-11T19:01:20.562Z,3.87
2023-03-11T19:03:55.325Z,3.89
2023-03-11T19:06:23.423Z,3.91
2023-03-11T19:08:50.834Z,3.91
2023-03-11T19:11:20.710Z,3.80
2023-03-11T19:13:48.448Z,3.72
2023-03-11T19:16:18.312Z,3.70
2023-03-11T19:18:46.005Z,3.69
2023-03-11T19:21:14.896Z,3.74
2023-03-11T19:23:42.584Z,3.74
2023-03-11T19:26:09.862Z,3.75
2023-03-11T19:28:37.324Z,3.73
2023-03-11T19:31:05.271Z,3.80
2023-03-11T19:33:32.656Z,3.77
2023-03-11T19:36:02.672Z,3.75
2023-03-11T19:38:30.353Z,3.71
2023-03-11T19:41:14.390Z,3.65
2023-03-11T19:43:42.007Z,3.61
2023-03-11T19:46:11.457Z,3.64
2023-03-11T19:48:38.747Z,3.69
2023-03-11T19:51:06.488Z,3.69
2023-03-11T19:53:34.894Z,3.67
2023-03-11T19:56:06.708Z,3.70
2023-03-11T19:58:34.296Z,3.65
2023-03-11T20:01:02.163Z,3.54
2023-03-11T20:03:29.757Z,3.51
2023-03-11T20:05:59.652Z,3.46
2023-03-11T20:08:26.881Z,3.50
2023-03-11T20:10:54.318Z,3.53
2023-03-11T20:13:22.333Z,3.40
2023-03-11T20:15:49.897Z,3.38
2023-03-11T20:18:18.286Z,3.39
2023-03-11T20:20:45.588Z,3.36
2023-03-11T20:23:13.184Z,3.27
2023-03-11T20:25:41.749Z,3.32
2023-03-11T20:28:09.538Z,3.26
2023-03-11T20:30:38.967Z,3.34
2023-03-11T20:33:07.707Z,3.22
2023-03-11T20:35:34.970Z,3.23
2023-03-11T20:38:03.089Z,3.27
2023-03-11T20:40:30.722Z,3.18
2023-03-11T20:42:57.879Z,3.12
2023-03-11T20:45:25.071Z,3.19
2023-03-11T20:47:53.953Z,3.20
2023-03-11T20:50:22.141Z,3.10
2023-03-11T20:52:50.389Z,3.12
2023-03-11T20:55:18.262Z,3.06
2023-03-11T20:57:45.446Z,3.05
2023-03-11T21:00:14.042Z,3.11
2023-03-11T21:02:44.674Z,3.04
2023-03-11T21:05:12.791Z,3.05
2023-03-11T21:07:40.346Z,3.05
2023-03-11T21:10:10.979Z,2.88
2023-03-11T21:12:38.338Z,2.82
2023-03-11T21:15:06.706Z,2.79
2023-03-11T21:17:34.649Z,2.79
2023-03-11T21:20:02.265Z,2.73
2023-03-11T21:22:29.341Z,2.74
2023-03-11T21:24:56.887Z,2.60
2023-03-11T21:27:27.530Z,2.58
2023-03-11T21:29:59.098Z,2.58
2023-03-11T21:32:28.223Z,2.47
2023-03-11T21:34:57.411Z,2.58
2023-03-11T21:37:25.680Z,2.65
2023-03-11T21:39:53.325Z,2.60
2023-03-11T21:42:21.061Z,2.52
2023-03-11T21:44:48.296Z,2.43
2023-03-11T21:47:15.849Z,2.51
2023-03-11T21:49:43.140Z,2.49
2023-03-11T21:52:10.434Z,2.53
2023-03-11T21:54:37.890Z,2.52
2023-03-11T21:57:05.359Z,2.49
2023-03-11T21:59:32.630Z,2.51
2023-03-11T22:02:03.168Z,2.49
2023-03-11T22:04:31.587Z,2.45
2023-03-11T22:07:01.923Z,2.53
2023-03-11T22:09:29.286Z,2.56
2023-03-11T22:11:56.755Z,2.49
2023-03-11T22:14:24.716Z,2.43
2023-03-11T22:16:52.273Z,2.46
2023-03-11T22:19:19.835Z,2.42
2023-03-11T22:21:58.027Z,2.33
2023-03-11T22:24:25.514Z,2.38
2023-03-11T22:26:52.817Z,2.31
2023-03-11T22:29:19.999Z,2.33
2023-03-11T22:31:47.437Z,2.27
2023-03-11T22:34:14.884Z,2.20
2023-03-11T22:36:42.082Z,2.22
2023-03-11T22:39:09.495Z,2.18
2023-03-11T22:41:36.625Z,2.11
2023-03-11T22:44:03.728Z,2.13
2023-03-11T22:46:31.239Z,2.14
2023-03-11T22:48:59.250Z,2.22
2023-03-11T22:51:26.544Z,2.11
2023-03-11T22:53:53.981Z,2.16
2023-03-11T22:56:21.416Z,2.10
2023-03-11T22:58:48.665Z,2.03
2023-03-11T23:01:16.928Z,2.03
2023-03-11T23:03:44.660Z,2.13
2023-03-11T23:06:14.980Z,1.92
2023-03-11T23:08:42.801Z,2.02
2023-03-11T23:11:12.959Z,2.05
2023-03-11T23:13:41.017Z,2.08
2023-03-11T23:16:12.104Z,2.03
2023-03-11T23:18:39.588Z,1.95
2023-03-11T23:21:20.727Z,1.99
2023-03-11T23:23:48.374Z,1.85
2023-03-11T23:26:16.639Z,2.07
2023-03-11T23:28:44.506Z,2.11
2023-03-11T23:31:14.449Z,2.08
2023-03-11T23:33:41.705Z,1.98
2023-03-11T23:36:11.838Z,2.14
2023-03-11T23:38:39.445Z,2.24
2023-03-11T23:41:12.873Z,2.18
2023-03-11T23:43:40.684Z,2.27
2023-03-11T23:46:08.339Z,2.20
2023-03-11T23:48:36.207Z,2.09
2023-03-11T23:51:04.723Z,2.07
2023-03-11T23:53:32.635Z,2.23
2023-03-11T23:55:59.773Z,2.25
2023-03-11T23:58:27.434Z,2.15
